Terminal Aerodrome Forecast
Issued by NWS

Home | Current Version | Previous Version | Text Only | Print | Product List | Glossary On
Versions: 1 2 3 4 5 6 7 8 9 10 11 12 13 14 15 16 17
000
FTUS42 KMLB 302340
TAFSUA
TAF
KSUA 302340Z 3100/3124 VRB04KT P6SM VCTS SCT020 BKN045CB OVC100
     FM310300 23004KT P6SM SCT150 BKN250
     FM311400 22010KT P6SM SCT020 SCT120 SCT250
     FM311800 23010KT P6SM VCTS SCT040CB BKN070 BKN120=

USA.gov is the U.S. government's official web portal to all federal, state and local government web resources and services.